Time;durP1;ratioP1;P1;durP2;ratioP2;P2;SDS_P1;SDS_P2;PMS_P1;PMS_P2;Temp;Humidity;BMP_temperature;BMP_pressure;BME280_temperature;BME280_humidity;BME280_pressure;Samples;Min_cycle;Max_cycle;Signal;HPM_P1;HPM_P2
2021/04/05 00:03:24;;;;;;;13.20;5.00;;;;;;;;;;10288592;28;20391;-60
2021/04/05 00:08:21;;;;;;;11.33;4.77;;;;;;;;;;10271149;28;20656;-61
2021/04/05 00:13:26;;;;;;;15.37;5.83;;;;;;;;;;10303450;28;20114;-64
2021/04/05 00:18:25;;;;;;;7.32;3.85;;;;;;;;;;10308086;28;20037;-65
2021/04/05 00:23:22;;;;;;;13.35;6.45;;;;;;;;;;10315541;28;20034;-58
2021/04/05 00:28:20;;;;;;;12.63;4.87;;;;;;;;;;10315611;28;20033;-61
2021/04/05 00:33:17;;;;;;;12.90;5.90;;;;;;;;;;10302038;28;20084;-61
2021/04/05 00:38:15;;;;;;;12.53;6.00;;;;;;;;;;10317975;28;20052;-63
2021/04/05 00:43:13;;;;;;;19.07;6.03;;;;;;;;;;10315590;28;20056;-63
2021/04/05 00:48:11;;;;;;;14.82;5.80;;;;;;;;;;10315955;28;20036;-63
2021/04/05 00:53:10;;;;;;;15.23;6.80;;;;;;;;;;10320958;28;20033;-62
2021/04/05 00:58:07;;;;;;;18.08;6.70;;;;;;;;;;10293373;28;20111;-61
2021/04/05 01:03:05;;;;;;;12.33;5.40;;;;;;;;;;10309810;28;20107;-61
2021/04/05 01:08:03;;;;;;;17.38;6.57;;;;;;;;;;10314170;28;20041;-59
2021/04/05 01:13:01;;;;;;;17.40;5.60;;;;;;;;;;10302613;28;20417;-62
2021/04/05 01:17:58;;;;;;;15.87;4.80;;;;;;;;;;10293697;28;20389;-59
2021/04/05 01:22:56;;;;;;;17.80;6.03;;;;;;;;;;10304642;28;20032;-60
2021/04/05 01:27:54;;;;;;;14.17;5.20;;;;;;;;;;10320700;28;20032;-58
2021/04/05 01:32:51;;;;;;;18.17;8.40;;;;;;;;;;10304103;28;20057;-61
2021/04/05 01:37:48;;;;;;;17.90;6.70;;;;;;;;;;10302599;28;20069;-63
2021/04/05 01:42:46;;;;;;;8.40;5.27;;;;;;;;;;10298637;28;20030;-57
2021/04/05 01:47:44;;;;;;;16.87;7.43;;;;;;;;;;10308440;28;20547;-61
2021/04/05 01:52:42;;;;;;;15.32;7.05;;;;;;;;;;10302990;28;20032;-61
2021/04/05 01:57:39;;;;;;;16.67;7.97;;;;;;;;;;10320307;28;20069;-62
2021/04/05 02:02:36;;;;;;;18.10;5.93;;;;;;;;;;10318492;28;20525;-61
2021/04/05 02:07:35;;;;;;;19.57;7.03;;;;;;;;;;10315173;28;20045;-61
2021/04/05 02:12:32;;;;;;;20.63;8.15;;;;;;;;;;10292569;28;20384;-64
2021/04/05 02:17:30;;;;;;;19.87;6.80;;;;;;;;;;10298977;28;20037;-62
2021/04/05 02:22:28;;;;;;;19.53;6.23;;;;;;;;;;10310152;28;20695;-59
2021/04/05 02:27:25;;;;;;;21.27;6.35;;;;;;;;;;10293030;28;20045;-61
2021/04/05 02:32:23;;;;;;;13.60;5.30;;;;;;;;;;10309190;28;20025;-60
2021/04/05 02:37:20;;;;;;;8.83;4.13;;;;;;;;;;10295146;28;20029;-57
2021/04/05 02:42:18;;;;;;;17.67;5.20;;;;;;;;;;10297921;28;20132;-58
2021/04/05 02:47:15;;;;;;;17.77;6.73;;;;;;;;;;10318487;28;20403;-62
2021/04/05 02:52:13;;;;;;;18.20;5.20;;;;;;;;;;10322763;28;20033;-60
2021/04/05 02:57:10;;;;;;;18.47;6.00;;;;;;;;;;10307459;28;20099;-58
2021/04/05 03:02:08;;;;;;;20.00;7.37;;;;;;;;;;10314798;28;20060;-59
2021/04/05 03:07:05;;;;;;;19.83;6.00;;;;;;;;;;10308156;28;20768;-60
2021/04/05 03:12:03;;;;;;;14.97;5.50;;;;;;;;;;10310143;28;20033;-60
2021/04/05 03:17:01;;;;;;;6.90;2.20;;;;;;;;;;10316999;28;20067;-61
2021/04/05 03:21:58;;;;;;;12.03;2.00;;;;;;;;;;10326470;28;20164;-60
2021/04/05 03:26:56;;;;;;;8.53;1.40;;;;;;;;;;10321270;28;20419;-60
2021/04/05 03:31:54;;;;;;;3.87;0.80;;;;;;;;;;10316136;28;20474;-62
2021/04/05 03:36:53;;;;;;;1.83;0.75;;;;;;;;;;10323163;28;20411;-62
2021/04/05 03:42:10;;;;;;;2.88;0.63;;;;;;;;;;10312262;28;20036;-61
2021/04/05 03:47:33;;;;;;;5.47;0.90;;;;;;;;;;10330159;28;20047;-62
2021/04/05 03:52:34;;;;;;;4.60;0.90;;;;;;;;;;10283511;28;20037;-61
2021/04/05 03:57:33;;;;;;;3.95;0.80;;;;;;;;;;10326733;28;20041;-61
2021/04/05 04:02:33;;;;;;;4.63;0.75;;;;;;;;;;10318651;28;20045;-62
2021/04/05 04:07:37;;;;;;;10.50;0.80;;;;;;;;;;10321987;28;20120;-59
2021/04/05 04:12:35;;;;;;;5.15;0.80;;;;;;;;;;10322484;28;20040;-59
2021/04/05 04:17:33;;;;;;;;;;;;;;;;;;10313269;28;20025;-61
2021/04/05 04:22:32;;;;;;;5.32;0.90;;;;;;;;;;10323909;28;19913;-61
2021/04/05 04:27:30;;;;;;;7.97;0.85;;;;;;;;;;10303259;28;20753;-61
2021/04/05 04:32:27;;;;;;;2.43;0.80;;;;;;;;;;10314061;28;20116;-59
2021/04/05 04:37:24;;;;;;;10.40;2.30;;;;;;;;;;10325284;28;20592;-61
2021/04/05 04:42:23;;;;;;;2.73;0.77;;;;;;;;;;10321466;28;20105;-61
2021/04/05 04:47:20;;;;;;;;;;;;;;;;;;10326529;28;20029;-61
2021/04/05 04:52:19;;;;;;;10.63;1.13;;;;;;;;;;10314209;28;19913;-61
2021/04/05 04:57:17;;;;;;;4.78;1.08;;;;;;;;;;10297072;28;20568;-61
2021/04/05 05:02:15;;;;;;;3.63;0.80;;;;;;;;;;10317541;28;20124;-57
2021/04/05 05:07:13;;;;;;;4.27;0.77;;;;;;;;;;10310095;28;20276;-57
2021/04/05 05:12:10;;;;;;;5.32;0.73;;;;;;;;;;10304304;28;20071;-59
2021/04/05 05:17:08;;;;;;;2.53;1.03;;;;;;;;;;10315610;28;20047;-61
2021/04/05 05:22:06;;;;;;;2.93;0.90;;;;;;;;;;10322441;28;20433;-59
2021/04/05 05:27:04;;;;;;;3.13;0.52;;;;;;;;;;10315918;28;20116;-58
2021/04/05 05:32:02;;;;;;;3.13;0.90;;;;;;;;;;10314959;28;20518;-57
2021/04/05 05:36:59;;;;;;;5.43;1.03;;;;;;;;;;10314278;28;20508;-61
2021/04/05 05:42:06;;;;;;;6.40;1.30;;;;;;;;;;10312176;28;20128;-60
2021/04/05 05:47:06;;;;;;;5.53;1.13;;;;;;;;;;10315196;28;20051;-60
2021/04/05 05:52:27;;;;;;;5.22;1.25;;;;;;;;;;10320609;28;20043;-57
2021/04/05 05:57:37;;;;;;;5.85;0.93;;;;;;;;;;10313450;28;20561;-57
2021/04/05 06:02:53;;;;;;;3.00;1.20;;;;;;;;;;10319700;28;20652;-58
2021/04/05 06:08:10;;;;;;;7.90;1.42;;;;;;;;;;10317147;28;20106;-57
2021/04/05 06:13:07;;;;;;;3.15;0.75;;;;;;;;;;10313274;28;20449;-58
2021/04/05 06:18:14;;;;;;;3.50;1.00;;;;;;;;;;10324495;28;20087;-59
2021/04/05 06:23:30;;;;;;;3.30;0.95;;;;;;;;;;10321240;28;20060;-57
2021/04/05 06:28:27;;;;;;;5.82;1.30;;;;;;;;;;10301176;28;20484;-58
2021/04/05 06:33:29;;;;;;;5.77;0.90;;;;;;;;;;10302999;28;20557;-59
2021/04/05 06:38:30;;;;;;;4.85;1.10;;;;;;;;;;10307819;28;20068;-58
2021/04/05 06:43:46;;;;;;;8.13;0.95;;;;;;;;;;10299461;28;20040;-57
2021/04/05 06:48:43;;;;;;;7.75;1.13;;;;;;;;;;10293517;28;20620;-56
2021/04/05 06:53:41;;;;;;;9.93;1.43;;;;;;;;;;10309729;28;20388;-59
2021/04/05 06:58:41;;;;;;;4.50;0.83;;;;;;;;;;10302904;28;20029;-60
2021/04/05 07:03:57;;;;;;;6.65;1.45;;;;;;;;;;10314661;28;20400;-58
2021/04/05 07:09:02;;;;;;;5.40;1.00;;;;;;;;;;10311678;28;20499;-57
2021/04/05 07:13:59;;;;;;;4.05;1.10;;;;;;;;;;10307860;28;20060;-59
2021/04/05 07:19:04;;;;;;;8.50;1.53;;;;;;;;;;10294425;28;20056;-57
2021/04/05 07:24:07;;;;;;;4.45;1.02;;;;;;;;;;10304978;28;20564;-57
2021/04/05 07:29:14;;;;;;;4.90;1.10;;;;;;;;;;10304975;28;20045;-59
2021/04/05 07:34:30;;;;;;;5.07;1.13;;;;;;;;;;10304450;28;20404;-57
2021/04/05 07:39:37;;;;;;;9.10;1.33;;;;;;;;;;10306140;28;20424;-56
2021/04/05 07:44:54;;;;;;;4.47;1.30;;;;;;;;;;10311873;28;20537;-58
2021/04/05 07:50:29;;;;;;;4.43;1.77;;;;;;;;;;10320061;28;20033;-57
2021/04/05 07:55:27;;;;;;;5.97;1.25;;;;;;;;;;10098678;28;20621;-55
2021/04/05 08:00:28;;;;;;;2.57;1.07;;;;;;;;;;10270305;28;20510;-58
2021/04/05 08:05:30;;;;;;;3.22;0.80;;;;;;;;;;10316461;28;20511;-56
2021/04/05 08:10:27;;;;;;;2.00;1.02;;;;;;;;;;10317370;28;20214;-55
2021/04/05 08:15:33;;;;;;;4.40;1.07;;;;;;;;;;10321792;28;20168;-58
2021/04/05 08:20:30;;;;;;;3.35;1.27;;;;;;;;;;10317968;28;20514;-57
2021/04/05 08:25:56;;;;;;;13.20;1.77;;;;;;;;;;10326357;28;20033;-58
2021/04/05 08:31:13;;;;;;;5.07;0.90;;;;;;;;;;10331621;28;20037;-57
2021/04/05 08:36:29;;;;;;;5.22;1.17;;;;;;;;;;10335226;28;20052;-60
2021/04/05 08:41:31;;;;;;;5.25;1.25;;;;;;;;;;10326463;28;20032;-60
2021/04/05 08:46:31;;;;;;;7.50;2.10;;;;;;;;;;10327722;28;20131;-58
2021/04/05 08:51:36;;;;;;;6.72;1.60;;;;;;;;;;10344598;28;20519;-58
2021/04/05 08:56:45;;;;;;;11.82;2.40;;;;;;;;;;10317645;28;20434;-60
2021/04/05 09:01:51;;;;;;;10.38;2.05;;;;;;;;;;10309024;28;20435;-60
2021/04/05 09:06:56;;;;;;;10.40;1.85;;;;;;;;;;10325752;28;20037;-59
2021/04/05 09:11:53;;;;;;;5.63;1.30;;;;;;;;;;10324460;28;20036;-60
2021/04/05 09:17:09;;;;;;;4.40;1.10;;;;;;;;;;10305948;28;21084;-59
2021/04/05 09:22:22;;;;;;;6.88;0.85;;;;;;;;;;10335643;28;20576;-61
2021/04/05 09:27:27;;;;;;;6.75;1.48;;;;;;;;;;10333095;28;20048;-59
2021/04/05 09:32:41;;;;;;;4.65;0.90;;;;;;;;;;10324368;28;20025;-61
2021/04/05 09:37:42;;;;;;;5.40;1.08;;;;;;;;;;10331251;28;20040;-58
2021/04/05 09:42:58;;;;;;;10.82;1.35;;;;;;;;;;10316837;28;20127;-60
2021/04/05 09:48:16;;;;;;;5.30;1.08;;;;;;;;;;10329949;28;20128;-63
2021/04/05 09:53:25;;;;;;;5.40;0.75;;;;;;;;;;10308137;28;20034;-54
2021/04/05 09:58:24;;;;;;;10.15;1.42;;;;;;;;;;10321769;28;20132;-60
2021/04/05 10:03:22;;;;;;;4.60;1.20;;;;;;;;;;10281374;28;20032;-59
2021/04/05 10:08:27;;;;;;;4.25;1.17;;;;;;;;;;10317509;28;20055;-59
2021/04/05 10:13:26;;;;;;;7.88;1.48;;;;;;;;;;10327157;28;20055;-61
2021/04/05 10:18:24;;;;;;;4.18;0.82;;;;;;;;;;10302032;28;20513;-62
2021/04/05 10:23:25;;;;;;;4.90;1.23;;;;;;;;;;10332789;28;20033;-62
2021/04/05 10:28:23;;;;;;;5.00;0.73;;;;;;;;;;10298601;28;20028;-60
2021/04/05 10:33:25;;;;;;;6.07;0.75;;;;;;;;;;10308419;28;20116;-61
2021/04/05 10:38:23;;;;;;;2.90;0.93;;;;;;;;;;10307106;28;20033;-56
2021/04/05 10:43:20;;;;;;;;;;;;;;;;;;10318172;28;20440;-62
2021/04/05 10:48:25;;;;;;;1.27;0.70;;;;;;;;;;10291369;28;20012;-62
2021/04/05 10:53:24;;;;;;;2.28;0.88;;;;;;;;;;10326743;28;20461;-60
2021/04/05 10:58:23;;;;;;;1.25;0.47;;;;;;;;;;10318330;28;20033;-62
2021/04/05 11:03:22;;;;;;;5.45;0.80;;;;;;;;;;10325850;28;20605;-61
2021/04/05 11:08:19;;;;;;;;;;;;;;;;;;10322269;28;20298;-61
2021/04/05 11:13:19;;;;;;;1.67;1.05;;;;;;;;;;10324705;28;20019;-63
2021/04/05 11:18:19;;;;;;;3.15;1.05;;;;;;;;;;10321967;28;20043;-62
2021/04/05 11:23:20;;;;;;;7.82;1.13;;;;;;;;;;10328363;28;20152;-62
2021/04/05 11:28:25;;;;;;;6.05;1.23;;;;;;;;;;10326189;28;20033;-61
2021/04/05 11:33:24;;;;;;;10.35;1.83;;;;;;;;;;10316791;28;20044;-64
2021/04/05 11:38:22;;;;;;;3.72;0.82;;;;;;;;;;10319007;28;20628;-61
2021/04/05 11:43:20;;;;;;;4.38;0.82;;;;;;;;;;10309078;28;20033;-59
2021/04/05 11:48:20;;;;;;;5.97;1.27;;;;;;;;;;10322839;28;20434;-63
2021/04/05 11:53:36;;;;;;;8.15;1.20;;;;;;;;;;10306045;28;20039;-61
2021/04/05 11:58:44;;;;;;;1.77;0.70;;;;;;;;;;10262360;23;20415;-65
2021/04/05 12:03:49;;;;;;;2.38;1.50;;;;;;;;;;10237253;28;20038;-65
2021/04/05 12:08:52;;;;;;;3.25;0.93;;;;;;;;;;10265922;28;20038;-66
2021/04/05 12:13:53;;;;;;;8.98;1.52;;;;;;;;;;10276089;28;20040;-65
2021/04/05 12:18:54;;;;;;;3.22;0.52;;;;;;;;;;10278565;28;20222;-64
2021/04/05 12:23:58;;;;;;;5.38;1.33;;;;;;;;;;10282798;28;20053;-64
2021/04/05 12:29:06;;;;;;;6.95;1.38;;;;;;;;;;10290341;28;20172;-65
2021/04/05 12:34:08;;;;;;;4.28;0.85;;;;;;;;;;10283395;28;20167;-64
2021/04/05 12:39:07;;;;;;;10.55;1.45;;;;;;;;;;10265685;28;20034;-65
2021/04/05 12:44:06;;;;;;;4.82;1.52;;;;;;;;;;10273035;28;20064;-64
2021/04/05 12:49:04;;;;;;;4.43;1.13;;;;;;;;;;10284220;28;20034;-66
2021/04/05 12:54:04;;;;;;;7.00;1.47;;;;;;;;;;10284756;28;20038;-66
2021/04/05 12:59:01;;;;;;;5.75;0.95;;;;;;;;;;10259947;28;20108;-66
2021/04/05 13:04:00;;;;;;;6.10;1.13;;;;;;;;;;10293756;28;20068;-65
2021/04/05 13:09:03;;;;;;;6.13;0.60;;;;;;;;;;10282450;28;20076;-65
2021/04/05 13:14:15;;;;;;;3.88;0.95;;;;;;;;;;10287457;28;20526;-64
2021/04/05 13:19:15;;;;;;;1.30;0.77;;;;;;;;;;10271180;28;20132;-64
2021/04/05 13:24:14;;;;;;;7.75;1.33;;;;;;;;;;10277077;28;20037;-63
2021/04/05 13:29:12;;;;;;;4.65;1.45;;;;;;;;;;10266288;28;20054;-64
2021/04/05 13:34:10;;;;;;;7.85;1.70;;;;;;;;;;10263236;28;20070;-65
2021/04/05 13:39:08;;;;;;;7.00;1.73;;;;;;;;;;10285281;28;20108;-66
2021/04/05 13:44:13;;;;;;;5.77;0.93;;;;;;;;;;10280688;28;20048;-64
2021/04/05 13:49:19;;;;;;;10.73;2.33;;;;;;;;;;10266663;28;20037;-66
2021/04/05 13:54:22;;;;;;;9.32;1.75;;;;;;;;;;10281600;28;20046;-64
2021/04/05 13:59:20;;;;;;;5.00;1.10;;;;;;;;;;10233939;28;20450;-65
2021/04/05 14:04:18;;;;;;;5.70;1.02;;;;;;;;;;10277315;28;20120;-65
2021/04/05 14:09:16;;;;;;;8.17;1.80;;;;;;;;;;10255376;28;20124;-64
2021/04/05 14:14:13;;;;;;;5.63;1.58;;;;;;;;;;10257924;28;20493;-65
2021/04/05 14:19:25;;;;;;;6.77;2.30;;;;;;;;;;10285779;28;20464;-64
2021/04/05 14:24:23;;;;;;;5.15;1.65;;;;;;;;;;10267306;28;20141;-64
2021/04/05 14:29:34;;;;;;;6.80;2.17;;;;;;;;;;10265846;28;20030;-65
2021/04/05 14:34:39;;;;;;;6.20;1.27;;;;;;;;;;10266140;28;21021;-64
2021/04/05 14:39:42;;;;;;;12.32;2.13;;;;;;;;;;10252066;28;20479;-66
2021/04/05 14:44:43;;;;;;;15.48;4.70;;;;;;;;;;10266589;28;20049;-65
2021/04/05 14:49:41;;;;;;;8.95;2.90;;;;;;;;;;10280777;28;20109;-64
2021/04/05 14:54:39;;;;;;;7.40;2.00;;;;;;;;;;10240569;28;20037;-64
2021/04/05 14:59:38;;;;;;;11.30;1.52;;;;;;;;;;10277940;28;20320;-65
2021/04/05 15:04:35;;;;;;;;;;;;;;;;;;10267138;28;20114;-64
2021/04/05 15:09:39;;;;;;;3.20;1.42;;;;;;;;;;10257930;28;19917;-65
2021/04/05 15:14:38;;;;;;;8.80;1.38;;;;;;;;;;10280591;28;20037;-67
2021/04/05 15:19:36;;;;;;;4.03;1.70;;;;;;;;;;10284486;28;20033;-65
2021/04/05 15:24:35;;;;;;;7.85;1.88;;;;;;;;;;10284785;28;20095;-65
2021/04/05 15:29:34;;;;;;;11.90;1.73;;;;;;;;;;10250835;28;20048;-64
2021/04/05 15:34:32;;;;;;;4.45;1.40;;;;;;;;;;10270750;28;20061;-67
2021/04/05 15:39:30;;;;;;;10.75;2.10;;;;;;;;;;10270206;28;20037;-65
2021/04/05 15:44:39;;;;;;;5.23;1.07;;;;;;;;;;10287685;28;20038;-65
2021/04/05 15:49:37;;;;;;;4.85;1.50;;;;;;;;;;10279570;28;20954;-65
2021/04/05 15:54:41;;;;;;;11.70;1.63;;;;;;;;;;10251689;28;20056;-64
2021/04/05 15:59:52;;;;;;;6.95;1.77;;;;;;;;;;10281197;28;20049;-64
2021/04/05 16:05:03;;;;;;;7.57;1.52;;;;;;;;;;10283750;28;20037;-64
2021/04/05 16:10:02;;;;;;;10.05;1.95;;;;;;;;;;10285672;28;20030;-64
2021/04/05 16:15:05;;;;;;;8.15;1.38;;;;;;;;;;10271596;28;20084;-64
2021/04/05 16:20:07;;;;;;;3.88;1.02;;;;;;;;;;10289412;28;20065;-63
2021/04/05 16:25:07;;;;;;;8.82;1.80;;;;;;;;;;10290822;28;20116;-63
2021/04/05 16:30:06;;;;;;;5.90;1.17;;;;;;;;;;10244943;28;20048;-63
2021/04/05 16:35:04;;;;;;;1.85;0.85;;;;;;;;;;10253287;28;20045;-63
2021/04/05 16:40:02;;;;;;;5.25;0.90;;;;;;;;;;10275475;28;20120;-64
2021/04/05 16:45:01;;;;;;;2.50;0.77;;;;;;;;;;10264012;28;20514;-64
2021/04/05 16:50:07;;;;;;;2.80;1.30;;;;;;;;;;10276619;28;20037;-65
2021/04/05 16:55:06;;;;;;;5.10;1.02;;;;;;;;;;10273080;28;20030;-65
2021/04/05 17:00:10;;;;;;;6.50;1.35;;;;;;;;;;10260816;28;20036;-66
2021/04/05 17:05:09;;;;;;;5.78;1.45;;;;;;;;;;10250105;28;20041;-65
2021/04/05 17:10:09;;;;;;;7.40;1.67;;;;;;;;;;10241099;28;20526;-65
2021/04/05 17:15:07;;;;;;;11.25;1.85;;;;;;;;;;10263254;28;20073;-66
2021/04/05 17:20:22;;;;;;;10.95;1.80;;;;;;;;;;10245814;28;20044;-64
2021/04/05 17:25:23;;;;;;;2.53;1.17;;;;;;;;;;10282891;28;20538;-66
2021/04/05 17:30:31;;;;;;;3.75;1.10;;;;;;;;;;10260024;28;20080;-65
2021/04/05 17:35:29;;;;;;;3.92;0.80;;;;;;;;;;10245980;28;20473;-65
2021/04/05 17:40:50;;;;;;;2.67;1.00;;;;;;;;;;10264998;28;20034;-65
2021/04/05 17:45:48;;;;;;;7.57;1.05;;;;;;;;;;10250479;28;20091;-64
2021/04/05 17:51:01;;;;;;;1.42;0.80;;;;;;;;;;10277298;28;20038;-65
2021/04/05 17:56:02;;;;;;;7.07;1.80;;;;;;;;;;10282150;28;20422;-64
2021/04/05 18:01:07;;;;;;;7.03;1.45;;;;;;;;;;10276268;28;20057;-64
2021/04/05 18:06:25;;;;;;;3.78;1.00;;;;;;;;;;10238128;28;20453;-65
2021/04/05 18:11:23;;;;;;;8.40;1.48;;;;;;;;;;10271649;28;20585;-65
2021/04/05 18:16:20;;;;;;;2.70;0.93;;;;;;;;;;10276252;28;20515;-66
2021/04/05 18:21:30;;;;;;;5.37;0.90;;;;;;;;;;10284884;28;20026;-62
2021/04/05 18:26:27;;;;;;;5.45;1.15;;;;;;;;;;10232148;28;20041;-64
2021/04/05 18:31:33;;;;;;;6.20;1.43;;;;;;;;;;10249179;28;20030;-65
2021/04/05 18:36:31;;;;;;;14.40;2.30;;;;;;;;;;10265416;28;20026;-64
2021/04/05 18:41:28;;;;;;;7.43;1.97;;;;;;;;;;10272898;28;20010;-63
2021/04/05 18:46:28;;;;;;;11.80;2.20;;;;;;;;;;10281577;28;20043;-64
2021/04/05 18:51:42;;;;;;;5.40;1.88;;;;;;;;;;10282302;28;20029;-64
2021/04/05 18:56:42;;;;;;;5.10;1.45;;;;;;;;;;10246070;28;20422;-63
2021/04/05 19:01:41;;;;;;;11.45;1.88;;;;;;;;;;10277234;28;20049;-63
2021/04/05 19:06:57;;;;;;;8.27;1.67;;;;;;;;;;10251905;28;20125;-63
2021/04/05 19:11:58;;;;;;;2.45;1.05;;;;;;;;;;10263694;28;20507;-63
2021/04/05 19:17:08;;;;;;;6.28;1.90;;;;;;;;;;10238102;28;20496;-65
2021/04/05 19:22:17;;;;;;;10.10;2.10;;;;;;;;;;10283604;28;20054;-63
2021/04/05 19:27:33;;;;;;;7.00;1.30;;;;;;;;;;10227027;28;20552;-64
2021/04/05 19:32:43;;;;;;;4.68;1.05;;;;;;;;;;10277313;28;20044;-64
2021/04/05 19:37:52;;;;;;;7.13;1.55;;;;;;;;;;10273206;28;20043;-64
2021/04/05 19:43:08;;;;;;;3.13;0.93;;;;;;;;;;10267264;28;20072;-65
2021/04/05 19:48:10;;;;;;;8.63;2.08;;;;;;;;;;10267568;28;20399;-65
2021/04/05 19:53:07;;;;;;;7.57;1.67;;;;;;;;;;10259346;28;20038;-65
2021/04/05 19:58:17;;;;;;;6.47;1.20;;;;;;;;;;10233610;28;20041;-65
2021/04/05 20:03:17;;;;;;;8.98;1.17;;;;;;;;;;10292620;28;20055;-66
2021/04/05 20:08:16;;;;;;;2.85;1.25;;;;;;;;;;10271616;28;20033;-65
2021/04/05 20:13:13;;;;;;;6.50;0.93;;;;;;;;;;10242052;28;20033;-63
2021/04/05 20:18:19;;;;;;;6.13;0.80;;;;;;;;;;10269363;28;20514;-65
2021/04/05 20:23:22;;;;;;;2.28;0.50;;;;;;;;;;10226398;28;20113;-65
2021/04/05 20:28:34;;;;;;;5.85;1.25;;;;;;;;;;10291039;28;20053;-62
2021/04/05 20:33:51;;;;;;;4.28;0.90;;;;;;;;;;10299107;28;20042;-66
2021/04/05 20:39:07;;;;;;;7.05;0.93;;;;;;;;;;10268190;28;20084;-65
2021/04/05 20:44:12;;;;;;;5.72;0.90;;;;;;;;;;10262649;28;21015;-66
2021/04/05 20:49:28;;;;;;;1.20;0.80;;;;;;;;;;10271390;28;20048;-65
2021/04/05 20:54:30;;;;;;;4.15;1.38;;;;;;;;;;10264614;28;21453;-65
2021/04/05 20:59:30;;;;;;;9.15;0.95;;;;;;;;;;10265365;28;20061;-63
2021/04/05 21:04:34;;;;;;;2.63;0.95;;;;;;;;;;10274910;28;20048;-64
2021/04/05 21:09:32;;;;;;;4.95;1.30;;;;;;;;;;10259280;28;20076;-65
2021/04/05 21:14:32;;;;;;;4.40;1.20;;;;;;;;;;10254674;28;20069;-65
2021/04/05 21:19:32;;;;;;;6.05;0.85;;;;;;;;;;10284281;28;20026;-66
2021/04/05 21:24:35;;;;;;;2.20;0.85;;;;;;;;;;10282139;28;20046;-65
2021/04/05 21:29:35;;;;;;;5.93;0.75;;;;;;;;;;10276814;28;20617;-64
2021/04/05 21:34:43;;;;;;;6.18;0.80;;;;;;;;;;10287375;28;20079;-64
2021/04/05 21:39:44;;;;;;;4.85;0.90;;;;;;;;;;10271743;28;20036;-65
2021/04/05 21:44:42;;;;;;;10.40;1.83;;;;;;;;;;10275283;28;20203;-65
2021/04/05 21:49:41;;;;;;;5.07;1.27;;;;;;;;;;10281184;28;20041;-65
2021/04/05 21:54:41;;;;;;;2.30;0.85;;;;;;;;;;10272813;28;20088;-66
2021/04/05 21:59:39;;;;;;;6.55;1.00;;;;;;;;;;10274963;28;20553;-64
2021/04/05 22:04:37;;;;;;;5.32;0.88;;;;;;;;;;10270547;28;20479;-64
2021/04/05 22:09:34;;;;;;;2.20;0.75;;;;;;;;;;10274697;28;20084;-65
2021/04/05 22:14:33;;;;;;;5.28;1.08;;;;;;;;;;10276824;28;20041;-66
2021/04/05 22:19:31;;;;;;;4.35;0.90;;;;;;;;;;10269000;28;20037;-66
2021/04/05 22:24:29;;;;;;;1.95;0.60;;;;;;;;;;10271041;28;20116;-66
2021/04/05 22:29:27;;;;;;;6.07;1.67;;;;;;;;;;10265981;28;20140;-64
2021/04/05 22:34:25;;;;;;;3.00;0.90;;;;;;;;;;10258748;28;20057;-65
2021/04/05 22:39:29;;;;;;;1.80;0.70;;;;;;;;;;10269820;28;20130;-64
2021/04/05 22:44:32;;;;;;;1.83;0.75;;;;;;;;;;10261591;28;20056;-65
2021/04/05 22:49:43;;;;;;;1.98;0.60;;;;;;;;;;10279851;28;20543;-65
2021/04/05 22:54:47;;;;;;;3.67;0.70;;;;;;;;;;10278409;28;20041;-65
2021/04/05 22:59:45;;;;;;;2.20;0.70;;;;;;;;;;10270326;28;20442;-64
2021/04/05 23:04:51;;;;;;;2.33;0.60;;;;;;;;;;10283031;28;20029;-64
2021/04/05 23:09:54;;;;;;;5.00;0.98;;;;;;;;;;10296978;28;20287;-63
2021/04/05 23:14:52;;;;;;;3.17;0.68;;;;;;;;;;10277451;28;20066;-64
2021/04/05 23:19:51;;;;;;;2.58;1.00;;;;;;;;;;10279777;28;20033;-64
2021/04/05 23:24:58;;;;;;;3.75;0.75;;;;;;;;;;10273170;28;20045;-63
2021/04/05 23:30:20;;;;;;;2.63;0.60;;;;;;;;;;10265932;28;20414;-63
2021/04/05 23:35:26;;;;;;;1.13;0.50;;;;;;;;;;10268799;28;20055;-63
2021/04/05 23:40:25;;;;;;;3.88;0.95;;;;;;;;;;10266592;28;20398;-63
2021/04/05 23:45:23;;;;;;;3.17;0.60;;;;;;;;;;10269508;28;20084;-64
2021/04/05 23:50:29;;;;;;;0.75;0.57;;;;;;;;;;10263320;28;20052;-63
2021/04/05 23:55:30;;;;;;;1.45;0.70;;;;;;;;;;10284267;28;20037;-63
